Time;durP1;ratioP1;P1;durP2;ratioP2;P2;SDS_P1;SDS_P2;PMS_P1;PMS_P2;Temp;Humidity;BMP_temperature;BMP_pressure;BME280_temperature;BME280_humidity;BME280_pressure;Samples;Min_cycle;Max_cycle;Signal;HPM_P1;HPM_P2
2022/07/11 00:02:11;;;;;;;;;;;16.30;99.90;;;;;;5029843;28;19917;-80
2022/07/11 00:04:37;;;;;;;;;;;16.20;99.90;;;;;;5030552;28;20239;-80
2022/07/11 00:07:03;;;;;;;;;;;16.20;99.90;;;;;;5030463;28;19916;-81
2022/07/11 00:09:29;;;;;;;;;;;16.20;99.90;;;;;;5029578;28;19925;-80
2022/07/11 00:11:54;;;;;;;;;;;16.20;99.90;;;;;;5031214;28;20379;-80
2022/07/11 00:14:21;;;;;;;;;;;16.20;99.90;;;;;;5030983;28;19929;-80
2022/07/11 00:16:47;;;;;;;;;;;16.30;99.90;;;;;;5032767;28;19917;-80
2022/07/11 00:19:13;;;;;;;;;;;16.20;99.90;;;;;;5042493;28;19917;-80
2022/07/11 00:21:38;;;;;;;;;;;16.20;99.90;;;;;;5039850;28;19923;-80
2022/07/11 00:24:04;;;;;;;;;;;16.20;99.90;;;;;;5048463;28;19920;-80
2022/07/11 00:26:30;;;;;;;;;;;16.20;99.90;;;;;;5030199;28;19917;-78
2022/07/11 00:28:56;;;;;;;;;;;16.20;99.90;;;;;;5036621;28;20011;-77
2022/07/11 00:31:22;;;;;;;;;;;16.20;99.90;;;;;;5041965;28;20027;-80
2022/07/11 00:33:47;;;;;;;;;;;16.20;99.90;;;;;;5047125;28;20007;-79
2022/07/11 00:36:13;;;;;;;;;;;16.20;99.90;;;;;;5032519;28;19967;-78
2022/07/11 00:38:39;;;;;;;;;;;16.20;99.90;;;;;;5030309;28;20016;-79
2022/07/11 00:41:04;;;;;;;;;;;16.10;99.90;;;;;;5050708;28;19963;-76
2022/07/11 00:43:34;;;;;;;;;;;16.20;99.90;;;;;;5038745;28;19948;-79
2022/07/11 00:46:00;;;;;;;;;;;16.10;99.90;;;;;;5036112;28;19966;-78
2022/07/11 00:48:26;;;;;;;;;;;16.10;99.90;;;;;;5043252;28;20254;-80
2022/07/11 00:50:51;;;;;;;;;;;16.10;99.90;;;;;;5036320;28;19916;-78
2022/07/11 00:53:18;;;;;;;;;;;16.10;99.90;;;;;;5042196;28;20248;-78
2022/07/11 00:55:44;;;;;;;;;;;16.10;99.90;;;;;;5032867;28;20226;-77
2022/07/11 00:58:11;;;;;;;;;;;16.10;99.90;;;;;;5039595;28;19909;-79
2022/07/11 01:00:36;;;;;;;;;;;16.00;99.90;;;;;;5032775;28;20316;-79
2022/07/11 01:03:02;;;;;;;;;;;16.10;99.90;;;;;;5036366;28;20026;-78
2022/07/11 01:05:28;;;;;;;;;;;16.10;99.90;;;;;;5043058;28;19921;-80
2022/07/11 01:07:54;;;;;;;;;;;16.00;99.90;;;;;;5032458;28;19913;-80
2022/07/11 01:10:19;;;;;;;;;;;16.00;99.90;;;;;;5039802;28;19913;-79
2022/07/11 01:12:45;;;;;;;;;;;16.00;99.90;;;;;;5033848;28;19925;-77
2022/07/11 01:15:13;;;;;;;;;;;16.00;99.90;;;;;;5037279;28;19925;-77
2022/07/11 01:17:39;;;;;;;;;;;16.00;99.90;;;;;;5031916;28;19956;-78
2022/07/11 01:20:04;;;;;;;;;;;16.00;99.90;;;;;;5032736;28;20386;-79
2022/07/11 01:22:35;;;;;;;;;;;16.00;99.90;;;;;;5033500;28;19924;-77
2022/07/11 01:25:01;;;;;;;;;;;16.00;99.90;;;;;;5032495;28;19952;-77
2022/07/11 01:27:26;;;;;;;;;;;15.90;99.90;;;;;;5036638;28;19960;-79
2022/07/11 01:29:52;;;;;;;;;;;16.00;99.90;;;;;;5036956;28;19979;-79
2022/07/11 01:32:18;;;;;;;;;;;16.00;99.90;;;;;;5033816;28;19910;-78
2022/07/11 01:34:44;;;;;;;;;;;16.00;99.90;;;;;;5033474;28;20591;-77
2022/07/11 01:37:09;;;;;;;;;;;16.00;99.90;;;;;;5035947;28;20009;-79
2022/07/11 01:39:35;;;;;;;;;;;16.00;99.90;;;;;;5033924;28;20328;-79
2022/07/11 01:42:00;;;;;;;;;;;16.00;99.90;;;;;;5045462;28;19939;-79
2022/07/11 01:44:26;;;;;;;;;;;16.00;99.90;;;;;;5038035;28;19959;-80
2022/07/11 01:46:51;;;;;;;;;;;16.00;99.90;;;;;;5038771;28;19989;-80
2022/07/11 01:49:17;;;;;;;;;;;15.90;99.90;;;;;;5036443;28;19916;-79
2022/07/11 01:51:42;;;;;;;;;;;16.00;99.90;;;;;;5037495;28;19909;-79
2022/07/11 01:54:08;;;;;;;;;;;16.00;99.90;;;;;;5048604;28;20023;-80
2022/07/11 01:56:34;;;;;;;;;;;15.90;99.90;;;;;;5042924;28;20312;-78
2022/07/11 01:59:00;;;;;;;;;;;15.90;99.90;;;;;;5045415;28;19943;-77
2022/07/11 02:01:26;;;;;;;;;;;16.00;99.90;;;;;;5036436;28;19916;-78
2022/07/11 02:03:52;;;;;;;;;;;16.00;99.90;;;;;;5040464;28;19916;-77
2022/07/11 02:06:18;;;;;;;;;;;15.90;99.90;;;;;;5048097;28;19913;-81
2022/07/11 02:08:43;;;;;;;;;;;16.00;99.90;;;;;;5032383;28;20444;-82
2022/07/11 02:11:09;;;;;;;;;;;15.90;99.90;;;;;;5035628;28;19940;-80
2022/07/11 02:13:35;;;;;;;;;;;15.90;99.90;;;;;;5045753;28;20063;-78
2022/07/11 02:16:02;;;;;;;;;;;15.90;99.90;;;;;;5045771;28;19939;-80
2022/07/11 02:18:27;;;;;;;;;;;15.90;99.90;;;;;;5034964;28;19909;-78
2022/07/11 02:20:53;;;;;;;;;;;15.90;99.90;;;;;;5039383;28;19924;-79
2022/07/11 02:23:19;;;;;;;;;;;15.90;99.90;;;;;;5040794;28;19913;-79
2022/07/11 02:25:44;;;;;;;;;;;15.90;99.90;;;;;;5042702;28;19936;-81
2022/07/11 02:28:10;;;;;;;;;;;15.90;99.90;;;;;;5048116;28;19913;-79
2022/07/11 02:30:37;;;;;;;;;;;15.90;99.90;;;;;;5042452;28;19913;-80
2022/07/11 02:33:03;;;;;;;;;;;15.90;99.90;;;;;;5034537;28;19913;-80
2022/07/11 02:35:28;;;;;;;;;;;15.90;99.90;;;;;;5036364;28;20343;-78
2022/07/11 02:37:54;;;;;;;;;;;15.90;99.90;;;;;;5048974;28;21213;-80
2022/07/11 02:40:19;;;;;;;;;;;15.90;99.90;;;;;;5035741;28;20339;-79
2022/07/11 02:42:45;;;;;;;;;;;15.80;99.90;;;;;;5034559;28;19972;-78
2022/07/11 02:45:11;;;;;;;;;;;15.90;99.90;;;;;;5056707;28;20231;-77
2022/07/11 02:47:38;;;;;;;;;;;15.90;99.90;;;;;;5044044;28;20258;-80
2022/07/11 02:50:06;;;;;;;;;;;16.00;99.90;;;;;;5039732;28;19963;-79
2022/07/11 02:52:31;;;;;;;;;;;15.90;99.90;;;;;;5035443;28;19984;-79
2022/07/11 02:54:57;;;;;;;;;;;16.00;99.90;;;;;;5033644;28;19914;-76
2022/07/11 02:57:22;;;;;;;;;;;16.10;99.90;;;;;;5045469;28;20042;-80
2022/07/11 02:59:48;;;;;;;;;;;16.10;99.90;;;;;;5044748;28;20314;-79
2022/07/11 03:02:13;;;;;;;;;;;16.20;99.90;;;;;;5037717;28;20208;-80
2022/07/11 03:04:39;;;;;;;;;;;16.20;99.90;;;;;;5038673;28;20415;-79
2022/07/11 03:07:05;;;;;;;;;;;16.10;99.90;;;;;;5037787;28;19909;-79
2022/07/11 03:09:30;;;;;;;;;;;16.10;99.90;;;;;;5034973;28;19929;-79
2022/07/11 03:11:56;;;;;;;;;;;16.10;99.90;;;;;;5032368;28;19913;-79
2022/07/11 03:14:21;;;;;;;;;;;16.10;99.90;;;;;;5042102;28;19927;-79
2022/07/11 03:16:47;;;;;;;;;;;16.00;99.90;;;;;;5041526;28;20032;-79
2022/07/11 03:19:12;;;;;;;;;;;16.10;99.90;;;;;;5032732;28;19910;-79
2022/07/11 03:21:38;;;;;;;;;;;16.00;99.90;;;;;;5034883;28;19920;-79
2022/07/11 03:24:04;;;;;;;;;;;16.00;99.90;;;;;;5034054;28;20000;-79
2022/07/11 03:26:30;;;;;;;;;;;16.00;99.90;;;;;;5035572;28;19962;-80
2022/07/11 03:28:55;;;;;;;;;;;16.00;99.90;;;;;;5033315;28;21112;-80
2022/07/11 03:31:21;;;;;;;;;;;16.00;99.90;;;;;;5040608;28;20251;-79
2022/07/11 03:33:46;;;;;;;;;;;15.90;99.90;;;;;;5032595;28;20318;-80
2022/07/11 03:36:12;;;;;;;;;;;15.90;99.90;;;;;;5022618;28;19929;-79
2022/07/11 03:38:38;;;;;;;;;;;15.90;99.90;;;;;;5043808;28;19916;-81
2022/07/11 03:41:03;;;;;;;;;;;15.90;99.90;;;;;;5042928;28;20220;-79
2022/07/11 03:43:29;;;;;;;;;;;15.90;99.90;;;;;;5050310;28;19916;-79
2022/07/11 03:45:55;;;;;;;;;;;15.90;99.90;;;;;;5044650;28;19917;-80
2022/07/11 03:48:21;;;;;;;;;;;15.90;99.90;;;;;;5049424;28;19928;-78
2022/07/11 03:50:47;;;;;;;;;;;15.90;99.90;;;;;;5049811;28;19909;-78
2022/07/11 03:53:13;;;;;;;;;;;15.90;99.90;;;;;;5049073;28;19971;-80
2022/07/11 03:55:39;;;;;;;;;;;15.90;99.90;;;;;;5047639;28;20266;-79
2022/07/11 03:58:04;;;;;;;;;;;15.90;99.90;;;;;;5050260;28;20308;-80
2022/07/11 04:00:31;;;;;;;;;;;15.90;99.90;;;;;;5051221;28;19948;-78
2022/07/11 04:02:57;;;;;;;;;;;15.80;99.90;;;;;;5046380;28;20003;-79
2022/07/11 04:05:23;;;;;;;;;;;15.80;99.90;;;;;;5041006;28;19941;-80
2022/07/11 04:07:49;;;;;;;;;;;15.80;99.90;;;;;;5046797;28;19920;-79
2022/07/11 04:10:15;;;;;;;;;;;15.80;99.90;;;;;;5037476;28;19928;-80
2022/07/11 04:12:41;;;;;;;;;;;15.80;99.90;;;;;;5040519;28;20002;-80
2022/07/11 04:15:07;;;;;;;;;;;15.80;99.90;;;;;;5025884;28;19972;-80
2022/07/11 04:17:32;;;;;;;;;;;15.80;99.90;;;;;;5031882;28;19913;-79
2022/07/11 04:19:58;;;;;;;;;;;15.90;99.90;;;;;;5031787;28;19913;-80
2022/07/11 04:22:24;;;;;;;;;;;15.80;99.90;;;;;;5047057;28;19921;-78
2022/07/11 04:24:50;;;;;;;;;;;15.80;99.90;;;;;;5033549;28;19956;-79
2022/07/11 04:27:15;;;;;;;;;;;16.00;99.90;;;;;;5033068;28;20252;-78
2022/07/11 04:29:41;;;;;;;;;;;16.00;99.90;;;;;;5032461;28;19971;-80
2022/07/11 04:32:07;;;;;;;;;;;15.90;99.90;;;;;;5032274;28;19913;-80
2022/07/11 04:34:32;;;;;;;;;;;15.90;99.90;;;;;;5035348;28;20308;-79
2022/07/11 04:36:58;;;;;;;;;;;15.90;99.90;;;;;;5031402;28;19913;-80
2022/07/11 04:39:24;;;;;;;;;;;15.80;99.90;;;;;;5015348;28;19947;-79
2022/07/11 04:41:49;;;;;;;;;;;15.80;99.90;;;;;;5031037;28;19944;-77
2022/07/11 04:44:15;;;;;;;;;;;15.80;99.90;;;;;;5032053;28;19918;-79
2022/07/11 04:46:41;;;;;;;;;;;15.80;99.90;;;;;;5033667;28;19916;-80
2022/07/11 04:49:06;;;;;;;;;;;15.80;99.90;;;;;;5033781;28;19913;-79
2022/07/11 04:51:32;;;;;;;;;;;15.80;99.90;;;;;;5030761;28;19982;-79
2022/07/11 04:53:58;;;;;;;;;;;15.80;99.90;;;;;;5030526;28;19921;-78
2022/07/11 04:56:23;;;;;;;;;;;16.00;99.90;;;;;;5033282;28;20032;-80
2022/07/11 04:58:49;;;;;;;;;;;15.90;99.90;;;;;;5033948;28;19917;-78
2022/07/11 05:01:15;;;;;;;;;;;15.90;99.90;;;;;;5034738;28;19917;-79
2022/07/11 05:03:40;;;;;;;;;;;15.90;99.90;;;;;;5033617;28;19913;-80
2022/07/11 05:06:06;;;;;;;;;;;15.90;99.90;;;;;;5032310;28;19971;-77
2022/07/11 05:08:36;;;;;;;;;;;16.00;99.90;;;;;;5034091;28;19924;-74
2022/07/11 05:11:02;;;;;;;;;;;16.00;99.90;;;;;;5033052;28;19917;-78
2022/07/11 05:13:27;;;;;;;;;;;16.10;99.90;;;;;;5031467;28;19966;-76
2022/07/11 05:15:53;;;;;;;;;;;16.10;99.90;;;;;;5036231;28;20019;-77
2022/07/11 05:18:19;;;;;;;;;;;16.10;99.90;;;;;;5036375;28;21245;-79
2022/07/11 05:20:44;;;;;;;;;;;16.20;99.90;;;;;;5035524;28;19913;-78
2022/07/11 05:23:10;;;;;;;;;;;16.20;99.90;;;;;;5037057;28;19913;-82
2022/07/11 05:25:35;;;;;;;;;;;16.20;99.90;;;;;;5035565;28;20344;-74
2022/07/11 05:28:01;;;;;;;;;;;16.20;99.90;;;;;;5034815;28;20015;-75
2022/07/11 05:30:26;;;;;;;;;;;16.20;99.90;;;;;;5035237;28;19939;-75
2022/07/11 05:32:52;;;;;;;;;;;16.20;99.90;;;;;;5035423;28;19924;-74
2022/07/11 05:35:18;;;;;;;;;;;16.20;99.90;;;;;;5032504;28;19927;-75
2022/07/11 05:37:43;;;;;;;;;;;16.30;99.90;;;;;;5035290;28;19921;-74
2022/07/11 05:40:09;;;;;;;;;;;16.30;99.90;;;;;;5036377;28;19917;-73
2022/07/11 05:42:35;;;;;;;;;;;16.30;99.90;;;;;;5036310;28;19960;-72
2022/07/11 05:45:00;;;;;;;;;;;16.40;99.90;;;;;;5036454;28;19932;-79
2022/07/11 05:47:26;;;;;;;;;;;16.40;99.90;;;;;;5036344;28;19917;-80
2022/07/11 05:49:51;;;;;;;;;;;16.30;99.90;;;;;;5036760;28;19967;-77
2022/07/11 05:52:17;;;;;;;;;;;16.40;99.90;;;;;;5037523;28;20330;-75
2022/07/11 05:54:42;;;;;;;;;;;16.50;99.90;;;;;;5034625;28;20232;-77
2022/07/11 05:57:08;;;;;;;;;;;16.60;99.90;;;;;;5036802;28;20220;-79
2022/07/11 05:59:35;;;;;;;;;;;16.70;99.90;;;;;;5035822;28;20235;-73
2022/07/11 06:02:02;;;;;;;;;;;16.90;99.90;;;;;;5033197;28;19914;-75
2022/07/11 06:04:27;;;;;;;;;;;17.30;99.90;;;;;;5036383;28;19913;-75
2022/07/11 06:06:53;;;;;;;;;;;17.50;99.90;;;;;;5032518;28;19921;-75
2022/07/11 06:09:18;;;;;;;;;;;17.50;99.90;;;;;;5034257;28;19917;-74
2022/07/11 06:11:44;;;;;;;;;;;17.50;99.90;;;;;;5034790;28;20271;-79
2022/07/11 06:14:09;;;;;;;;;;;17.60;99.90;;;;;;5034365;28;19929;-76
2022/07/11 06:16:35;;;;;;;;;;;17.70;99.90;;;;;;5033472;28;19932;-75
2022/07/11 06:19:01;;;;;;;;;;;17.70;99.90;;;;;;5036509;28;19920;-76
2022/07/11 06:21:27;;;;;;;;;;;17.70;99.90;;;;;;5031559;28;19913;-76
2022/07/11 06:23:54;;;;;;;;;;;17.70;99.90;;;;;;5033758;28;19921;-75
2022/07/11 06:26:20;;;;;;;;;;;17.70;99.90;;;;;;5035219;28;20330;-80
2022/07/11 06:28:45;;;;;;;;;;;17.50;99.90;;;;;;5035638;28;19923;-75
2022/07/11 06:31:11;;;;;;;;;;;17.50;99.90;;;;;;5032862;28;19913;-73
2022/07/11 06:33:37;;;;;;;;;;;17.40;99.90;;;;;;5037171;28;19963;-78
2022/07/11 06:36:03;;;;;;;;;;;17.30;99.90;;;;;;5035447;28;19935;-79
2022/07/11 06:38:29;;;;;;;;;;;17.30;99.90;;;;;;5049595;28;19923;-81
2022/07/11 06:40:55;;;;;;;;;;;17.20;99.90;;;;;;5032594;28;19913;-79
2022/07/11 06:43:20;;;;;;;;;;;17.20;99.90;;;;;;5036227;28;19952;-80
2022/07/11 06:45:46;;;;;;;;;;;17.30;99.90;;;;;;5036370;28;20015;-79
2022/07/11 06:48:12;;;;;;;;;;;17.10;99.90;;;;;;5034969;28;19913;-79
2022/07/11 06:50:37;;;;;;;;;;;17.10;99.90;;;;;;5033453;28;19983;-79
2022/07/11 06:53:03;;;;;;;;;;;17.00;99.90;;;;;;5034855;28;19928;-79
2022/07/11 06:55:29;;;;;;;;;;;17.00;99.90;;;;;;5033582;28;19932;-78
2022/07/11 06:57:55;;;;;;;;;;;17.00;99.90;;;;;;5034472;28;19913;-77
2022/07/11 07:00:20;;;;;;;;;;;16.90;99.90;;;;;;5031887;28;20264;-76
2022/07/11 07:02:46;;;;;;;;;;;17.10;99.90;;;;;;5034130;28;20370;-79
2022/07/11 07:05:12;;;;;;;;;;;17.00;99.90;;;;;;5036035;28;19936;-81
2022/07/11 07:07:37;;;;;;;;;;;16.90;99.90;;;;;;5034577;28;19917;-77
2022/07/11 07:10:03;;;;;;;;;;;17.00;99.90;;;;;;5032742;28;19924;-75
2022/07/11 07:12:29;;;;;;;;;;;17.00;99.90;;;;;;5032897;28;19999;-76
2022/07/11 07:14:55;;;;;;;;;;;17.10;99.90;;;;;;5033170;28;20395;-79
2022/07/11 07:17:20;;;;;;;;;;;17.20;99.90;;;;;;5036324;28;20235;-80
2022/07/11 07:19:46;;;;;;;;;;;17.20;99.90;;;;;;5034231;28;20020;-78
2022/07/11 07:22:15;;;;;;;;;;;17.20;99.90;;;;;;5033711;28;19913;-80
2022/07/11 07:24:41;;;;;;;;;;;17.10;99.90;;;;;;5032293;28;19913;-80
2022/07/11 07:27:07;;;;;;;;;;;17.30;99.90;;;;;;5032097;28;19964;-77
2022/07/11 07:29:32;;;;;;;;;;;17.50;99.90;;;;;;5034657;28;19921;-79
2022/07/11 07:31:59;;;;;;;;;;;17.50;99.90;;;;;;5035593;28;19920;-76
2022/07/11 07:34:24;;;;;;;;;;;17.50;99.90;;;;;;5031964;28;19921;-77
2022/07/11 07:36:50;;;;;;;;;;;17.50;99.90;;;;;;5033084;28;20293;-75
2022/07/11 07:39:15;;;;;;;;;;;17.70;99.90;;;;;;5036070;28;19932;-74
2022/07/11 07:41:41;;;;;;;;;;;17.80;99.90;;;;;;5033529;28;19920;-75
2022/07/11 07:44:07;;;;;;;;;;;17.60;99.90;;;;;;5031865;28;19913;-79
2022/07/11 07:46:33;;;;;;;;;;;17.60;99.90;;;;;;5033339;28;19914;-78
2022/07/11 07:48:59;;;;;;;;;;;17.50;99.90;;;;;;5033904;28;19919;-77
2022/07/11 07:51:25;;;;;;;;;;;17.60;99.90;;;;;;5034725;28;19968;-79
2022/07/11 07:53:50;;;;;;;;;;;17.50;99.90;;;;;;5034098;28;19916;-80
2022/07/11 07:56:16;;;;;;;;;;;17.50;99.90;;;;;;5033110;28;19921;-79
2022/07/11 07:58:41;;;;;;;;;;;17.50;99.90;;;;;;5031981;28;19913;-80
2022/07/11 08:03:51;;;;;;;;;;;17.50;99.90;;;;;;5031869;28;19960;-78
2022/07/11 08:06:17;;;;;;;;;;;17.70;99.90;;;;;;5032811;28;19928;-77
2022/07/11 08:08:42;;;;;;;;;;;17.60;99.90;;;;;;5034082;28;19913;-79
2022/07/11 08:11:08;;;;;;;;;;;17.40;99.90;;;;;;5035456;28;20263;-77
2022/07/11 08:13:36;;;;;;;;;;;17.40;99.90;;;;;;5034407;28;19956;-78
2022/07/11 08:16:02;;;;;;;;;;;17.30;99.90;;;;;;5031498;28;19917;-78
2022/07/11 08:18:28;;;;;;;;;;;17.30;99.90;;;;;;5033462;28;19932;-80
2022/07/11 08:20:55;;;;;;;;;;;17.40;99.90;;;;;;5033203;28;19968;-78
2022/07/11 08:23:21;;;;;;;;;;;17.40;99.90;;;;;;5032237;28;20004;-78
2022/07/11 08:25:47;;;;;;;;;;;17.50;99.90;;;;;;5029979;28;20019;-76
2022/07/11 08:28:12;;;;;;;;;;;17.70;99.90;;;;;;5031935;28;20236;-78
2022/07/11 08:30:38;;;;;;;;;;;17.80;99.90;;;;;;5032062;28;19976;-78
2022/07/11 08:33:03;;;;;;;;;;;17.70;99.90;;;;;;5032787;28;20331;-79
2022/07/11 08:35:29;;;;;;;;;;;17.60;99.90;;;;;;5033968;28;19971;-77
2022/07/11 08:37:54;;;;;;;;;;;17.60;99.90;;;;;;5034596;28;20363;-78
2022/07/11 08:40:20;;;;;;;;;;;17.50;99.90;;;;;;5034310;28;20304;-78
2022/07/11 08:42:46;;;;;;;;;;;17.40;99.90;;;;;;5032692;28;19917;-78
2022/07/11 08:45:12;;;;;;;;;;;17.40;99.90;;;;;;5029667;28;19913;-78
2022/07/11 08:47:37;;;;;;;;;;;17.30;99.90;;;;;;5036371;28;19917;-79
2022/07/11 08:50:04;;;;;;;;;;;17.40;99.90;;;;;;5035687;28;19913;-77
2022/07/11 08:52:30;;;;;;;;;;;17.40;99.90;;;;;;5029792;28;19917;-79
2022/07/11 08:54:55;;;;;;;;;;;17.40;99.90;;;;;;5036065;28;19987;-79
2022/07/11 08:57:21;;;;;;;;;;;17.50;99.90;;;;;;5038409;28;20300;-79
2022/07/11 08:59:47;;;;;;;;;;;17.60;99.90;;;;;;5037097;28;19944;-81
2022/07/11 09:02:13;;;;;;;;;;;17.50;99.90;;;;;;5036528;28;19967;-75
2022/07/11 09:04:38;;;;;;;;;;;17.80;99.90;;;;;;5036703;28;19975;-78
2022/07/11 09:07:05;;;;;;;;;;;17.90;99.90;;;;;;5030273;28;19920;-82
2022/07/11 09:09:31;;;;;;;;;;;17.90;99.90;;;;;;5052561;28;19913;-79
2022/07/11 09:11:57;;;;;;;;;;;17.90;99.90;;;;;;5037270;28;19916;-74
2022/07/11 09:14:32;;;;;;;;;;;17.90;99.90;;;;;;5037476;28;19921;-79
2022/07/11 09:17:02;;;;;;;;;;;18.00;99.90;;;;;;5032848;28;20248;-79
2022/07/11 09:19:29;;;;;;;;;;;18.00;99.90;;;;;;5036012;28;19920;-78
2022/07/11 09:27:45;;;;;;;;;;;18.30;99.90;;;;;;5037030;28;20004;-75
2022/07/11 09:30:27;;;;;;;;;;;18.30;99.90;;;;;;5034524;28;19913;-73
2022/07/11 09:32:55;;;;;;;;;;;18.20;99.90;;;;;;5037661;28;19909;-75
2022/07/11 09:35:21;;;;;;;;;;;18.30;99.90;;;;;;5034620;28;19971;-77
2022/07/11 09:37:48;;;;;;;;;;;18.40;99.90;;;;;;5035490;28;20339;-74
2022/07/11 09:40:14;;;;;;;;;;;18.50;99.90;;;;;;5037198;28;19948;-75
2022/07/11 09:42:50;;;;;;;;;;;18.60;99.90;;;;;;5036344;28;19939;-77
2022/07/11 09:45:16;;;;;;;;;;;18.60;99.90;;;;;;5036311;28;20327;-73
2022/07/11 09:47:51;;;;;;;;;;;18.80;99.90;;;;;;5033481;28;19920;-74
2022/07/11 09:50:18;;;;;;;;;;;18.80;99.90;;;;;;5036076;28;19921;-75
2022/07/11 09:52:57;;;;;;;;;;;18.80;99.90;;;;;;5037632;28;19913;-78
2022/07/11 09:55:24;;;;;;;;;;;18.90;99.90;;;;;;5035531;28;19940;-76
2022/07/11 09:57:49;;;;;;;;;;;19.00;99.90;;;;;;5034206;28;20540;-74
2022/07/11 10:00:15;;;;;;;;;;;19.20;99.90;;;;;;5035658;28;20008;-73
2022/07/11 10:02:41;;;;;;;;;;;19.20;99.90;;;;;;5036493;28;20012;-73
2022/07/11 10:05:06;;;;;;;;;;;19.40;99.90;;;;;;5035279;28;19921;-73
2022/07/11 10:07:32;;;;;;;;;;;19.50;99.90;;;;;;5035402;28;19913;-72
2022/07/11 10:09:58;;;;;;;;;;;19.50;99.90;;;;;;5033659;28;19950;-78
2022/07/11 10:12:24;;;;;;;;;;;19.50;99.90;;;;;;5035164;28;19920;-73
2022/07/11 10:14:50;;;;;;;;;;;19.70;99.90;;;;;;5034494;28;19925;-76
2022/07/11 10:17:34;;;;;;;;;;;19.70;99.90;;;;;;5035714;28;19924;-77
2022/07/11 10:20:06;;;;;;;;;;;19.90;99.90;;;;;;5036598;28;20573;-79
2022/07/11 10:22:34;;;;;;;;;;;19.60;99.90;;;;;;5036934;28;19917;-77
2022/07/11 10:25:20;;;;;;;;;;;19.60;99.90;;;;;;5036195;28;19920;-75
2022/07/11 10:28:04;;;;;;;;;;;19.60;99.90;;;;;;5034957;28;20201;-73
2022/07/11 10:30:43;;;;;;;;;;;19.60;99.90;;;;;;5033348;28;19913;-78
2022/07/11 10:33:09;;;;;;;;;;;19.40;99.90;;;;;;5033000;28;19964;-75
2022/07/11 10:35:35;;;;;;;;;;;19.60;99.90;;;;;;5034420;28;19960;-78
2022/07/11 10:38:04;;;;;;;;;;;19.80;99.90;;;;;;5032952;28;19917;-74
2022/07/11 10:40:48;;;;;;;;;;;20.00;99.90;;;;;;5034897;28;20223;-78
2022/07/11 10:43:15;;;;;;;;;;;20.30;99.90;;;;;;5032759;28;19913;-77
2022/07/11 10:45:49;;;;;;;;;;;20.50;99.90;;;;;;5034633;28;20315;-79
2022/07/11 10:48:15;;;;;;;;;;;20.10;99.90;;;;;;5036779;28;20292;-78
2022/07/11 10:50:41;;;;;;;;;;;20.00;99.90;;;;;;5044989;28;19943;-79
2022/07/11 10:53:08;;;;;;;;;;;19.90;99.90;;;;;;5047051;28;20008;-78
2022/07/11 10:55:47;;;;;;;;;;;20.20;99.90;;;;;;5047774;28;19952;-79
2022/07/11 10:58:24;;;;;;;;;;;20.00;99.90;;;;;;5045482;28;19920;-78
2022/07/11 11:01:12;;;;;;;;;;;20.10;99.90;;;;;;5043625;28;19929;-77
2022/07/11 11:03:40;;;;;;;;;;;20.50;99.90;;;;;;5046932;28;20330;-74
2022/07/11 11:06:06;;;;;;;;;;;20.50;99.90;;;;;;5047063;28;19948;-77
2022/07/11 11:08:35;;;;;;;;;;;20.50;99.90;;;;;;5044365;28;20261;-78
2022/07/11 11:11:19;;;;;;;;;;;20.30;99.90;;;;;;5045016;28;19920;-79
2022/07/11 11:13:45;;;;;;;;;;;20.00;99.90;;;;;;5041916;28;19928;-78
2022/07/11 11:16:22;;;;;;;;;;;19.80;99.90;;;;;;5045620;28;19917;-74
2022/07/11 11:18:48;;;;;;;;;;;19.90;99.90;;;;;;5062955;28;19909;-75
2022/07/11 11:21:14;;;;;;;;;;;20.00;99.90;;;;;;5046887;28;19917;-79
2022/07/11 11:23:41;;;;;;;;;;;19.90;99.90;;;;;;5036158;28;19909;-77
2022/07/11 11:26:16;;;;;;;;;;;20.00;99.90;;;;;;5033250;28;20015;-75
2022/07/11 11:29:01;;;;;;;;;;;20.10;99.90;;;;;;5033508;28;20107;-77
2022/07/11 11:31:27;;;;;;;;;;;20.20;99.90;;;;;;5032443;28;20014;-79
2022/07/11 11:33:53;;;;;;;;;;;20.10;99.90;;;;;;5031966;28;19917;-74
2022/07/11 11:36:19;;;;;;;;;;;20.10;99.90;;;;;;5034503;28;19917;-73
2022/07/11 11:38:46;;;;;;;;;;;20.00;99.90;;;;;;5034702;28;20380;-75
2022/07/11 11:41:28;;;;;;;;;;;20.20;99.90;;;;;;5035171;28;20219;-75
2022/07/11 11:43:55;;;;;;;;;;;20.40;99.90;;;;;;5033705;28;19971;-79
2022/07/11 11:46:25;;;;;;;;;;;20.50;99.90;;;;;;5016754;28;19931;-78
2022/07/11 11:48:54;;;;;;;;;;;20.40;99.90;;;;;;5032517;28;19913;-77
2022/07/11 11:51:19;;;;;;;;;;;20.50;99.90;;;;;;5035458;28;20363;-79
2022/07/11 11:53:46;;;;;;;;;;;20.40;99.90;;;;;;5034842;28;19972;-76
2022/07/11 11:56:13;;;;;;;;;;;20.60;99.90;;;;;;5034762;28;19928;-77
2022/07/11 11:58:39;;;;;;;;;;;20.70;99.90;;;;;;5034385;28;19964;-73
2022/07/11 12:01:05;;;;;;;;;;;20.80;99.90;;;;;;5037807;28;20346;-73
2022/07/11 12:03:49;;;;;;;;;;;21.00;99.90;;;;;;5033771;28;19913;-75
2022/07/11 12:06:15;;;;;;;;;;;21.10;99.90;;;;;;5034638;28;20003;-77
2022/07/11 12:08:40;;;;;;;;;;;21.10;99.90;;;;;;5034906;28;20000;-76
2022/07/11 12:11:06;;;;;;;;;;;21.20;99.90;;;;;;5035064;28;19921;-75
2022/07/11 12:13:31;;;;;;;;;;;21.40;99.90;;;;;;5034971;28;19917;-75
2022/07/11 12:18:41;;;;;;;;;;;21.50;99.90;;;;;;5032280;28;19968;-78
2022/07/11 12:21:11;;;;;;;;;;;21.40;99.90;;;;;;5033475;28;20316;-75
2022/07/11 12:23:36;;;;;;;;;;;21.50;99.90;;;;;;5033821;28;19917;-78
2022/07/11 12:26:02;;;;;;;;;;;21.50;99.90;;;;;;5034330;28;19924;-74
2022/07/11 12:28:27;;;;;;;;;;;21.70;99.90;;;;;;5034480;28;19920;-75
2022/07/11 12:30:56;;;;;;;;;;;22.00;99.90;;;;;;5033867;28;19917;-78
2022/07/11 12:33:23;;;;;;;;;;;22.00;99.90;;;;;;5033013;28;19924;-75
2022/07/11 12:35:59;;;;;;;;;;;22.30;99.90;;;;;;5032954;28;19921;-73
2022/07/11 12:38:25;;;;;;;;;;;22.60;99.90;;;;;;5032276;28;19928;-74
2022/07/11 12:40:57;;;;;;;;;;;23.00;99.90;;;;;;5031749;28;19921;-78
2022/07/11 12:46:23;;;;;;;;;;;22.60;99.90;;;;;;5040527;28;19913;-75
2022/07/11 12:48:50;;;;;;;;;;;23.00;99.90;;;;;;5033219;28;19913;-76
2022/07/11 12:51:34;;;;;;;;;;;23.30;99.90;;;;;;5033958;28;19913;-77
2022/07/11 12:54:05;;;;;;;;;;;23.30;99.90;;;;;;5034473;28;19917;-74
2022/07/11 12:56:31;;;;;;;;;;;23.50;99.90;;;;;;5044990;28;19921;-77
2022/07/11 12:58:57;;;;;;;;;;;22.70;99.90;;;;;;5044932;28;19939;-76
2022/07/11 13:01:23;;;;;;;;;;;22.90;99.90;;;;;;5045805;28;19913;-75
2022/07/11 13:03:49;;;;;;;;;;;23.10;99.90;;;;;;5033306;28;19923;-76
2022/07/11 13:06:15;;;;;;;;;;;23.40;99.90;;;;;;5034332;28;21568;-76
2022/07/11 13:08:46;;;;;;;;;;;23.70;99.90;;;;;;5033916;28;19923;-76
2022/07/11 13:11:19;;;;;;;;;;;24.00;99.90;;;;;;5034039;28;19920;-75
2022/07/11 13:13:48;;;;;;;;;;;24.10;99.90;;;;;;5033490;28;19921;-76
2022/07/11 13:16:14;;;;;;;;;;;24.00;99.90;;;;;;5033690;28;20615;-76
2022/07/11 13:18:39;;;;;;;;;;;23.80;99.90;;;;;;5016884;28;20228;-74
2022/07/11 13:21:07;;;;;;;;;;;23.90;99.90;;;;;;5033594;28;19963;-78
2022/07/11 13:23:33;;;;;;;;;;;23.60;99.90;;;;;;5034039;28;19917;-79
2022/07/11 13:25:59;;;;;;;;;;;23.50;99.90;;;;;;5033980;28;19921;-73
2022/07/11 13:28:25;;;;;;;;;;;23.70;99.90;;;;;;5034110;28;19997;-76
2022/07/11 13:30:51;;;;;;;;;;;23.90;99.90;;;;;;5034004;28;19913;-77
2022/07/11 13:33:17;;;;;;;;;;;24.10;99.90;;;;;;5033821;28;19921;-81
2022/07/11 13:35:43;;;;;;;;;;;24.40;99.90;;;;;;5035880;28;19913;-76
2022/07/11 13:38:08;;;;;;;;;;;24.30;99.90;;;;;;5044473;28;20547;-76
2022/07/11 13:40:34;;;;;;;;;;;24.10;99.90;;;;;;5048703;28;20597;-80
2022/07/11 13:43:02;;;;;;;;;;;23.80;99.90;;;;;;5037318;28;19920;-74
2022/07/11 13:45:27;;;;;;;;;;;23.60;99.90;;;;;;5034305;28;19913;-77
2022/07/11 13:47:53;;;;;;;;;;;23.80;99.90;;;;;;5035642;28;19914;-75
2022/07/11 13:50:20;;;;;;;;;;;23.90;99.90;;;;;;5049695;28;19913;-76
2022/07/11 13:52:48;;;;;;;;;;;24.10;99.90;;;;;;5044038;28;20312;-78
2022/07/11 13:55:17;;;;;;;;;;;24.60;99.90;;;;;;5050472;28;19924;-80
2022/07/11 13:57:43;;;;;;;;;;;24.60;99.90;;;;;;5049820;28;19917;-76
2022/07/11 14:00:09;;;;;;;;;;;24.10;99.90;;;;;;5043000;28;19917;-75
2022/07/11 14:02:35;;;;;;;;;;;24.10;99.90;;;;;;5038773;28;19914;-77
2022/07/11 14:05:00;;;;;;;;;;;24.50;99.90;;;;;;5052608;28;19919;-75
2022/07/11 14:07:27;;;;;;;;;;;24.70;99.90;;;;;;5050419;28;19913;-75
2022/07/11 14:09:53;;;;;;;;;;;24.70;99.90;;;;;;5047563;28;20012;-75
2022/07/11 14:12:19;;;;;;;;;;;24.00;99.90;;;;;;5041540;28;19923;-76
2022/07/11 14:14:45;;;;;;;;;;;24.40;99.90;;;;;;5048401;28;20383;-74
2022/07/11 14:17:10;;;;;;;;;;;24.20;99.90;;;;;;5048885;28;19913;-79
2022/07/11 14:19:38;;;;;;;;;;;24.10;99.90;;;;;;5042502;28;19924;-78
2022/07/11 14:22:07;;;;;;;;;;;23.90;99.90;;;;;;5037449;28;19925;-75
2022/07/11 14:24:33;;;;;;;;;;;24.00;99.90;;;;;;5037303;28;19913;-72
2022/07/11 14:26:59;;;;;;;;;;;24.20;99.90;;;;;;5045555;28;19920;-74
2022/07/11 14:29:24;;;;;;;;;;;24.70;99.90;;;;;;5049679;28;19921;-75